createdAt,value
2018-03-11T11:44:35.902Z,33568
2018-03-11T11:45:37.675Z,33184
2018-03-11T11:46:39.392Z,33696
2018-03-11T11:47:41.296Z,33312
2018-03-11T11:48:43.060Z,33856
2018-03-11T11:49:44.779Z,34944
2018-03-11T11:50:46.493Z,32896
2018-03-11T11:51:48.533Z,33696
2018-03-11T11:52:50.231Z,31584
2018-03-11T11:53:51.963Z,34240
2018-03-11T11:54:54.620Z,33536
2018-03-11T11:55:56.862Z,34912
2018-03-11T11:56:58.586Z,35296
2018-03-11T11:58:00.302Z,35392
2018-03-11T11:59:02.036Z,33504
2018-03-11T12:00:03.779Z,35808
2018-03-11T12:01:05.554Z,36704
2018-03-11T12:02:07.324Z,37472
2018-03-11T12:03:09.079Z,40992
2018-03-11T12:04:10.912Z,48928
2018-03-11T12:05:12.913Z,58048
2018-03-11T12:06:14.926Z,62976
2018-03-11T12:07:16.696Z,66144
2018-03-11T12:08:18.540Z,38272
2018-03-11T12:09:20.301Z,25088
2018-03-11T12:10:22.059Z,65600
2018-03-11T12:11:23.871Z,41184
2018-03-11T12:12:25.644Z,59456
2018-03-11T12:13:27.430Z,48320
2018-03-11T12:14:29.320Z,66528
2018-03-11T12:15:31.265Z,70016
2018-03-11T12:16:33.075Z,49472
2018-03-11T12:17:34.880Z,74720
2018-03-11T12:18:36.716Z,16504
2018-03-11T12:19:38.576Z,21984
2018-03-11T12:20:40.337Z,24128
2018-03-11T12:21:42.208Z,21760
2018-03-11T12:22:44.090Z,20672
2018-03-11T12:23:45.991Z,22272
2018-03-11T12:24:47.846Z,19328
2018-03-11T12:25:49.614Z,30944
2018-03-11T12:26:51.516Z,62048
2018-03-11T12:27:53.369Z,37728
2018-03-11T12:28:55.138Z,22848
2018-03-11T12:29:56.989Z,19008
2018-03-11T12:30:59.355Z,26432
2018-03-11T12:32:01.311Z,17312
2018-03-11T12:33:03.262Z,19680
2018-03-11T12:34:05.132Z,13856
2018-03-11T12:35:06.946Z,13264
2018-03-11T12:36:08.816Z,13340
2018-03-11T12:37:10.619Z,10224
2018-03-11T12:38:12.503Z,9960
2018-03-11T12:39:14.218Z,10548
2018-03-11T12:40:15.975Z,11640
2018-03-11T12:41:17.770Z,12324
2018-03-11T12:42:19.496Z,13592
2018-03-11T12:43:21.493Z,14172
2018-03-11T12:44:23.200Z,13240
2018-03-11T12:45:25.161Z,10112
2018-03-11T12:46:26.926Z,11680
2018-03-11T12:47:28.775Z,13508
2018-03-11T12:48:30.537Z,14196
2018-03-11T12:49:32.311Z,15644
2018-03-11T12:50:34.242Z,15140
2018-03-11T12:51:35.790Z,13408
2018-03-11T12:52:38.514Z,12924
2018-03-11T12:53:40.259Z,16332
2018-03-11T12:54:42.066Z,16864
2018-03-11T12:55:43.841Z,14936
2018-03-11T12:56:45.616Z,11828
2018-03-11T12:57:47.645Z,9920
2018-03-11T12:58:49.444Z,7192
2018-03-11T12:59:51.269Z,3700
2018-03-11T13:00:53.161Z,2964
2018-03-11T13:02:36.043Z,4580
2018-03-11T13:03:38.701Z,5604
2018-03-11T13:04:40.443Z,7364
2018-03-11T13:05:42.472Z,9952
2018-03-11T13:06:44.443Z,13848
2018-03-11T13:07:46.212Z,19008
2018-03-11T13:08:47.977Z,21376
2018-03-11T13:09:49.882Z,22528
2018-03-11T13:10:51.653Z,23808
2018-03-11T13:11:53.483Z,26176
2018-03-11T13:12:55.596Z,25152
2018-03-11T13:13:57.497Z,33952
2018-03-11T13:14:59.236Z,26848
2018-03-11T13:16:01.024Z,28864
2018-03-11T13:17:02.800Z,27072
2018-03-11T13:18:04.537Z,27136
2018-03-11T13:19:06.455Z,27552
2018-03-11T13:20:08.363Z,25344
2018-03-11T13:21:10.083Z,25184
2018-03-11T13:22:11.862Z,23040
2018-03-11T13:23:13.782Z,21824
2018-03-11T13:24:15.688Z,20256
2018-03-11T13:25:17.561Z,21696
2018-03-11T13:26:19.377Z,20096
2018-03-11T13:27:21.183Z,18752
2018-03-11T13:28:22.930Z,17760
2018-03-11T13:29:24.753Z,15504
2018-03-11T13:30:26.654Z,14508
2018-03-11T13:31:28.491Z,12640
2018-03-11T13:32:30.312Z,11108
2018-03-11T13:33:32.152Z,10048
2018-03-11T13:34:33.987Z,9848
2018-03-11T13:35:35.865Z,10148
2018-03-11T13:36:37.649Z,10000
2018-03-11T13:37:39.471Z,10228
2018-03-11T13:38:41.217Z,9748
2018-03-11T13:39:42.957Z,10112
2018-03-11T13:40:44.745Z,10316
2018-03-11T13:41:46.614Z,10200
2018-03-11T13:42:48.339Z,9788
2018-03-11T13:43:50.108Z,9504
2018-03-11T13:44:51.860Z,9336
2018-03-11T13:45:53.578Z,9312
2018-03-11T13:46:55.369Z,9292
2018-03-11T13:47:57.110Z,8856
2018-03-11T13:48:58.883Z,9800
2018-03-11T13:50:00.740Z,10552
2018-03-11T13:51:02.657Z,11288
2018-03-11T13:52:04.387Z,11688
2018-03-11T13:53:06.149Z,10824
2018-03-11T13:54:07.902Z,10676
2018-03-11T13:55:09.623Z,11312
2018-03-11T13:56:11.336Z,10844
2018-03-11T13:57:13.064Z,10036
2018-03-11T13:58:14.790Z,8428
2018-03-11T13:59:16.535Z,7320
2018-03-11T14:00:18.268Z,7076
2018-03-11T14:01:20.100Z,7852
2018-03-11T14:02:21.835Z,7140
2018-03-11T14:03:23.550Z,6296
2018-03-11T14:04:25.281Z,6032
2018-03-11T14:05:27.064Z,6412
2018-03-11T14:06:28.910Z,7168
2018-03-11T14:07:30.699Z,7976
2018-03-11T14:08:32.504Z,9528
2018-03-11T14:09:34.302Z,11316
2018-03-11T14:10:36.094Z,12420
2018-03-11T14:11:37.872Z,12920
2018-03-11T14:12:39.701Z,12192
2018-03-11T14:13:41.498Z,11024
2018-03-11T14:14:43.319Z,10072
2018-03-11T14:15:45.123Z,9612
2018-03-11T14:16:47.007Z,8708
2018-03-11T14:17:48.796Z,7972
2018-03-11T14:18:50.708Z,7860
2018-03-11T14:19:52.507Z,7824
2018-03-11T14:20:54.290Z,7196
2018-03-11T14:21:56.098Z,6408
2018-03-11T14:22:57.932Z,6508
2018-03-11T14:23:59.698Z,6028
2018-03-11T14:25:01.469Z,5688
2018-03-11T14:26:03.266Z,5236
2018-03-11T14:27:05.089Z,5296
2018-03-11T14:28:06.883Z,7016
2018-03-11T14:29:08.752Z,8640
2018-03-11T14:30:10.519Z,7900
2018-03-11T14:31:12.570Z,8500
2018-03-11T14:32:14.608Z,8552
2018-03-11T14:33:16.447Z,7016
2018-03-11T14:34:18.252Z,5048
2018-03-11T14:35:20.019Z,7008
2018-03-11T14:36:21.834Z,9840
2018-03-11T14:37:24.047Z,9048
2018-03-11T14:38:25.835Z,8056
2018-03-11T14:39:27.654Z,9380
2018-03-11T14:40:29.771Z,9736
2018-03-11T14:41:35.401Z,10308
2018-03-11T14:42:41.048Z,10012
2018-03-11T14:43:42.753Z,9828
2018-03-11T14:44:44.560Z,10164
2018-03-11T14:45:46.352Z,9732
2018-03-11T14:46:48.155Z,10432
2018-03-11T14:47:50.195Z,9164
2018-03-11T14:48:54.845Z,8408
2018-03-11T14:49:56.836Z,6308
2018-03-11T14:50:58.653Z,5408
2018-03-11T14:52:00.457Z,5180
2018-03-11T14:53:02.233Z,5116
2018-03-11T14:54:03.992Z,4796
2018-03-11T14:55:05.838Z,4764
2018-03-11T14:56:07.680Z,4400
2018-03-11T14:57:09.452Z,4324
2018-03-11T14:58:11.234Z,4436
2018-03-11T14:59:13.026Z,5108
2018-03-11T15:00:14.845Z,5804
2018-03-11T15:01:17.568Z,6340
2018-03-11T15:02:19.335Z,6416
2018-03-11T15:03:21.174Z,6556
2018-03-11T15:04:22.936Z,6556
2018-03-11T15:05:24.760Z,6624
2018-03-11T15:06:26.564Z,7156
2018-03-11T15:07:28.861Z,7332
2018-03-11T15:08:31.016Z,7340
2018-03-11T15:09:32.814Z,7324
2018-03-11T15:10:34.606Z,7124
2018-03-11T15:11:36.444Z,6736
2018-03-11T15:12:39.183Z,6288
2018-03-11T15:13:41.314Z,5976
2018-03-11T15:14:43.836Z,5752
2018-03-11T15:15:45.873Z,5860
2018-03-11T15:16:47.773Z,6436
2018-03-11T15:17:49.617Z,6892
2018-03-11T15:18:51.379Z,7060
2018-03-11T15:19:53.298Z,7316
2018-03-11T15:20:55.180Z,7684
2018-03-11T15:21:57.111Z,7640
2018-03-11T15:22:59.020Z,7764
2018-03-11T15:24:00.877Z,7660
2018-03-11T15:25:02.774Z,7540
2018-03-11T15:26:04.621Z,6996
2018-03-11T15:27:06.481Z,6716
2018-03-11T15:28:08.481Z,7404
2018-03-11T15:29:10.319Z,8148
2018-03-11T15:30:12.063Z,8748
2018-03-11T15:31:13.899Z,9708
2018-03-11T15:32:15.743Z,9736
2018-03-11T15:33:17.486Z,7776
2018-03-11T15:34:19.323Z,5244
2018-03-11T15:35:21.157Z,5172
2018-03-11T15:36:22.892Z,3532
2018-03-11T15:37:24.654Z,3048
2018-03-11T15:38:26.473Z,2568
2018-03-11T15:39:28.443Z,2292
2018-03-11T15:40:30.574Z,2004
2018-03-11T15:41:32.655Z,1672
2018-03-11T15:42:34.533Z,1632
2018-03-11T15:43:36.819Z,1796
2018-03-11T15:44:39.222Z,2064
2018-03-11T15:45:41.171Z,2408
2018-03-11T15:46:43.022Z,2796
2018-03-11T15:47:44.786Z,3076
2018-03-11T15:48:46.545Z,3392
2018-03-11T15:49:48.392Z,3552
2018-03-11T15:50:50.221Z,3808
2018-03-11T15:51:51.980Z,4100
2018-03-11T15:52:53.738Z,4200
2018-03-11T15:53:55.482Z,4272
2018-03-11T15:54:57.248Z,4404
2018-03-11T15:55:59.066Z,4680
2018-03-11T15:57:01.640Z,4696
2018-03-11T15:58:03.437Z,4652
2018-03-11T15:59:05.276Z,4476
2018-03-11T16:00:07.105Z,4316
2018-03-11T16:01:08.913Z,4392
2018-03-11T16:02:10.752Z,4460
2018-03-11T16:03:12.547Z,4916
2018-03-11T16:04:14.370Z,6216
2018-03-11T16:05:16.140Z,6880
2018-03-11T16:06:17.907Z,7484
2018-03-11T16:07:19.706Z,7608
2018-03-11T16:08:21.484Z,7692
2018-03-11T16:09:23.252Z,7628
2018-03-11T16:10:25.071Z,8180
2018-03-11T16:11:26.857Z,8436
2018-03-11T16:12:28.879Z,8060
2018-03-11T16:13:30.714Z,7236
2018-03-11T16:14:32.546Z,5128
2018-03-11T16:15:34.404Z,4040
2018-03-11T16:16:36.333Z,3736
2018-03-11T16:17:38.222Z,3192
2018-03-11T16:18:40.048Z,1564
2018-03-11T16:19:41.910Z,1172
2018-03-11T16:20:43.780Z,1448
2018-03-11T16:21:45.533Z,1836
2018-03-11T16:22:48.062Z,2196
2018-03-11T16:23:49.989Z,4140
2018-03-11T16:24:51.731Z,4972
2018-03-11T16:25:53.577Z,4796
2018-03-11T16:26:55.384Z,4600
2018-03-11T16:27:57.156Z,4432
2018-03-11T16:28:58.968Z,4472
2018-03-11T16:30:00.842Z,4808
2018-03-11T16:31:03.086Z,5520
2018-03-11T16:32:04.854Z,7952
2018-03-11T16:33:06.735Z,8924
2018-03-11T16:34:08.548Z,7920
2018-03-11T16:35:10.345Z,7132
2018-03-11T16:36:12.199Z,7044
2018-03-11T16:37:14.054Z,6972
2018-03-11T16:38:15.910Z,6724
2018-03-11T16:39:17.760Z,6420
2018-03-11T16:40:19.682Z,6148
2018-03-11T16:41:21.557Z,5972
2018-03-11T16:42:23.546Z,5960
2018-03-11T16:43:25.440Z,5968
2018-03-11T16:44:27.343Z,5892
2018-03-11T16:45:29.313Z,5864
2018-03-11T16:46:31.197Z,5684
2018-03-11T16:47:33.097Z,5640
2018-03-11T16:48:35.003Z,5564
2018-03-11T16:49:37.001Z,5152
2018-03-11T16:50:38.895Z,4612
2018-03-11T16:51:40.753Z,4428
2018-03-11T16:52:42.677Z,4132
2018-03-11T16:53:44.601Z,3920
2018-03-11T16:54:46.487Z,4228
2018-03-11T16:55:48.415Z,4340
2018-03-11T16:56:50.338Z,4452
2018-03-11T16:57:52.252Z,4524
2018-03-11T16:58:54.132Z,4536
2018-03-11T16:59:55.943Z,4504
2018-03-11T17:00:57.844Z,4432
2018-03-11T17:01:59.824Z,4320
2018-03-11T17:03:03.990Z,4628
2018-03-11T17:04:06.278Z,4640
2018-03-11T17:05:08.706Z,4432
2018-03-11T17:06:10.918Z,4168
2018-03-11T17:07:12.708Z,3692
2018-03-11T17:08:14.584Z,2916
2018-03-11T17:09:16.437Z,2432
2018-03-11T17:10:18.298Z,2284
2018-03-11T17:11:20.067Z,2484
2018-03-11T17:12:21.933Z,2740
2018-03-11T17:13:23.690Z,3252
2018-03-11T17:14:25.569Z,2908
2018-03-11T17:15:27.435Z,2592
2018-03-11T17:16:29.325Z,1948
2018-03-11T17:17:31.160Z,1772
2018-03-11T17:18:32.979Z,2012
2018-03-11T17:19:34.782Z,1640
2018-03-11T17:20:36.560Z,1452
2018-03-11T17:21:38.364Z,1012
2018-03-11T17:22:40.164Z,984
2018-03-11T17:23:42.046Z,1828
2018-03-11T17:24:43.863Z,2056
2018-03-11T17:25:45.792Z,1868
2018-03-11T17:26:47.651Z,1784
2018-03-11T17:27:49.460Z,1064
2018-03-11T17:28:53.359Z,788
2018-03-11T17:29:55.097Z,456
2018-03-11T17:30:56.969Z,388
2018-03-11T17:32:00.051Z,452
2018-03-11T17:33:01.919Z,524
2018-03-11T17:34:03.738Z,724
2018-03-11T17:35:06.776Z,1028
2018-03-11T17:36:08.825Z,1012
2018-03-11T17:37:11.018Z,996
2018-03-11T17:38:13.729Z,1000
2018-03-11T17:39:15.660Z,1048
2018-03-11T17:40:17.641Z,1076
2018-03-11T17:41:19.700Z,1140
2018-03-11T17:42:21.614Z,1252
2018-03-11T17:43:27.921Z,1420
2018-03-11T17:44:30.577Z,1600
2018-03-11T17:45:32.562Z,1692
2018-03-11T17:46:37.482Z,1804
2018-03-11T17:47:39.426Z,1900
2018-03-11T17:48:41.684Z,1940
2018-03-11T17:49:43.651Z,1892
2018-03-11T17:50:45.883Z,1808
2018-03-11T17:51:49.572Z,1740
2018-03-11T17:52:51.663Z,1564
2018-03-11T17:53:54.811Z,1460
2018-03-11T17:54:57.906Z,1536
2018-03-11T17:55:59.758Z,1408
2018-03-11T17:57:01.693Z,1288
2018-03-11T17:58:03.805Z,1288
2018-03-11T17:59:05.660Z,976
2018-03-11T18:00:07.506Z,804
2018-03-11T18:01:09.355Z,764
2018-03-11T18:02:11.161Z,764
2018-03-11T18:03:12.983Z,768
2018-03-11T18:04:14.811Z,604
2018-03-11T18:05:16.611Z,572
2018-03-11T18:06:18.433Z,492
2018-03-11T18:07:20.808Z,412
2018-03-11T18:08:22.650Z,352
2018-03-11T18:09:24.476Z,348
2018-03-11T18:10:26.556Z,320
2018-03-11T18:11:50.605Z,332
2018-03-11T18:12:58.572Z,416
2018-03-11T18:14:03.610Z,476
2018-03-11T18:15:10.245Z,312
2018-03-11T18:16:13.664Z,272
2018-03-11T18:17:18.641Z,284
2018-03-11T18:18:20.995Z,356
2018-03-11T18:19:23.066Z,392
2018-03-11T18:20:25.662Z,460
2018-03-11T18:21:28.400Z,420
2018-03-11T18:22:30.387Z,388
2018-03-11T18:23:33.533Z,340
2018-03-11T18:24:35.862Z,328
2018-03-11T18:25:37.810Z,308
2018-03-11T18:26:39.706Z,280
2018-03-11T18:27:41.965Z,268
2018-03-11T18:28:46.507Z,256
2018-03-11T18:29:49.140Z,240
2018-03-11T18:30:58.207Z,220
2018-03-11T18:32:00.556Z,196
2018-03-11T18:33:03.506Z,176
2018-03-11T18:34:05.976Z,156
2018-03-11T18:35:08.385Z,132
2018-03-11T18:36:10.715Z,96
2018-03-11T18:37:12.797Z,76
2018-03-11T18:38:14.848Z,48
2018-03-11T18:39:17.486Z,28
2018-03-11T18:40:20.578Z,32
2018-03-11T18:41:22.399Z,28
2018-03-11T18:42:25.205Z,24
2018-03-11T18:43:27.420Z,24
2018-03-11T18:45:21.125Z,16
2018-03-11T18:46:23.471Z,20
2018-03-11T18:47:26.094Z,16
2018-03-11T18:48:28.150Z,16
2018-03-11T18:49:39.953Z,16
2018-03-11T18:50:49.654Z,12
2018-03-11T18:51:56.217Z,12
2018-03-11T18:53:02.116Z,8
2018-03-11T18:55:25.542Z,8
2018-03-11T18:56:29.030Z,4
2018-03-11T18:57:45.004Z,4
